Time;durP1;ratioP1;P1;durP2;ratioP2;P2;SDS_P1;SDS_P2;PMS_P1;PMS_P2;Temp;Humidity;BMP_temperature;BMP_pressure;BME280_temperature;BME280_humidity;BME280_pressure;Samples;Min_cycle;Max_cycle;Signal;HPM_P1;HPM_P2
2023/05/17 00:02:40;;;;;;;3.53;2.60;;;;;;;;;;10296724;28;20072;-67
2023/05/17 00:07:39;;;;;;;5.28;3.17;;;;;;;;;;10297124;28;20087;-68
2023/05/17 00:12:39;;;;;;;3.40;3.10;;;;;;;;;;10296607;28;20060;-68
2023/05/17 00:17:37;;;;;;;4.30;3.03;;;;;;;;;;10294915;28;20174;-67
2023/05/17 00:22:35;;;;;;;5.10;2.40;;;;;;;;;;10295304;28;20068;-67
2023/05/17 00:27:34;;;;;;;6.55;4.00;;;;;;;;;;10298932;28;20057;-68
2023/05/17 00:32:33;;;;;;;4.80;3.33;;;;;;;;;;10303525;28;20060;-68
2023/05/17 00:37:31;;;;;;;9.88;4.32;;;;;;;;;;10303842;28;20068;-68
2023/05/17 00:42:30;;;;;;;9.55;3.90;;;;;;;;;;10303405;28;20072;-66
2023/05/17 00:47:28;;;;;;;6.80;4.50;;;;;;;;;;10309082;28;20080;-68
2023/05/17 00:52:28;;;;;;;6.65;4.07;;;;;;;;;;10302902;28;20068;-68
2023/05/17 00:57:27;;;;;;;7.20;4.00;;;;;;;;;;10303610;28;20082;-67
2023/05/17 01:02:26;;;;;;;7.28;4.63;;;;;;;;;;10302681;28;20075;-68
2023/05/17 01:07:24;;;;;;;7.03;4.28;;;;;;;;;;10303837;28;20064;-68
2023/05/17 01:12:30;;;;;;;10.68;4.82;;;;;;;;;;10302272;28;20506;-68
2023/05/17 01:17:35;;;;;;;7.97;4.63;;;;;;;;;;10296749;28;20092;-68
2023/05/17 01:22:38;;;;;;;10.73;4.40;;;;;;;;;;10303603;28;20083;-67
2023/05/17 01:27:40;;;;;;;15.67;5.37;;;;;;;;;;10302469;28;20577;-68
2023/05/17 01:32:40;;;;;;;6.00;3.92;;;;;;;;;;10301012;28;20068;-68
2023/05/17 01:37:39;;;;;;;9.73;4.10;;;;;;;;;;10299271;28;20052;-67
2023/05/17 01:42:39;;;;;;;7.72;4.35;;;;;;;;;;10300996;28;20124;-68
2023/05/17 01:47:41;;;;;;;5.82;4.32;;;;;;;;;;10307664;28;20057;-68
2023/05/17 01:52:45;;;;;;;7.10;4.50;;;;;;;;;;10299200;28;20446;-68
2023/05/17 01:57:45;;;;;;;5.63;4.30;;;;;;;;;;10300822;28;20079;-68
2023/05/17 02:02:44;;;;;;;8.65;4.15;;;;;;;;;;10307043;28;20187;-68
2023/05/17 02:07:43;;;;;;;5.85;4.22;;;;;;;;;;10297759;28;20095;-68
2023/05/17 02:12:41;;;;;;;5.32;4.22;;;;;;;;;;10301051;28;20060;-68
2023/05/17 02:17:44;;;;;;;6.43;4.35;;;;;;;;;;10304815;28;20488;-68
2023/05/17 02:22:45;;;;;;;5.95;4.20;;;;;;;;;;10300549;28;20076;-68
2023/05/17 02:27:43;;;;;;;5.80;4.65;;;;;;;;;;10299814;28;20072;-68
2023/05/17 02:32:41;;;;;;;5.47;4.70;;;;;;;;;;10300257;28;20099;-68
2023/05/17 02:37:41;;;;;;;6.03;4.82;;;;;;;;;;10304700;28;20508;-68
2023/05/17 02:42:39;;;;;;;9.15;4.88;;;;;;;;;;10300340;28;20064;-68
2023/05/17 02:47:39;;;;;;;8.00;4.82;;;;;;;;;;10299400;28;20060;-67
2023/05/17 02:52:37;;;;;;;9.82;4.47;;;;;;;;;;10295981;28;20045;-68
2023/05/17 02:57:38;;;;;;;7.35;4.70;;;;;;;;;;10294974;28;20078;-68
2023/05/17 03:02:36;;;;;;;8.77;4.80;;;;;;;;;;10292034;28;20103;-68
2023/05/17 03:07:36;;;;;;;9.52;4.90;;;;;;;;;;10298009;28;20059;-68
2023/05/17 03:12:34;;;;;;;8.73;5.03;;;;;;;;;;10302344;28;20546;-68
2023/05/17 03:17:34;;;;;;;7.55;5.35;;;;;;;;;;10296622;28;20068;-68
2023/05/17 03:22:33;;;;;;;8.95;5.00;;;;;;;;;;10296288;28;20092;-68
2023/05/17 03:27:31;;;;;;;7.45;5.70;;;;;;;;;;10294278;28;20072;-68
2023/05/17 03:32:30;;;;;;;9.48;5.55;;;;;;;;;;10298208;28;20080;-68
2023/05/17 03:37:30;;;;;;;9.48;5.88;;;;;;;;;;10300993;28;20049;-68
2023/05/17 03:42:28;;;;;;;11.05;6.55;;;;;;;;;;10298253;28;20076;-68
2023/05/17 03:47:26;;;;;;;13.77;6.65;;;;;;;;;;10302558;28;20091;-68
2023/05/17 03:52:25;;;;;;;8.73;6.45;;;;;;;;;;10292154;28;20489;-68
2023/05/17 03:57:24;;;;;;;10.60;6.25;;;;;;;;;;10292616;28;20446;-68
2023/05/17 04:02:23;;;;;;;8.23;6.00;;;;;;;;;;10297268;28;20099;-69
2023/05/17 04:07:22;;;;;;;9.02;5.95;;;;;;;;;;10302260;28;20102;-69
2023/05/17 04:12:20;;;;;;;7.90;6.22;;;;;;;;;;10293433;28;20071;-68
2023/05/17 04:17:20;;;;;;;12.68;6.22;;;;;;;;;;10294312;28;20095;-69
2023/05/17 04:22:19;;;;;;;8.95;7.35;;;;;;;;;;10291937;28;20076;-68
2023/05/17 04:27:20;;;;;;;24.13;19.33;;;;;;;;;;10290274;28;20055;-68
2023/05/17 04:32:20;;;;;;;28.95;7.30;;;;;;;;;;10289738;28;20072;-67
2023/05/17 04:37:18;;;;;;;17.90;11.02;;;;;;;;;;10296835;28;20098;-67
2023/05/17 04:42:20;;;;;;;45.08;36.58;;;;;;;;;;10292443;28;20540;-67
2023/05/17 04:47:25;;;;;;;12.33;7.97;;;;;;;;;;10292403;28;20089;-68
2023/05/17 04:52:24;;;;;;;16.65;7.13;;;;;;;;;;10293254;28;20426;-68
2023/05/17 04:57:25;;;;;;;11.48;6.50;;;;;;;;;;10289983;28;20095;-68
2023/05/17 05:02:29;;;;;;;;;;;;;;;;;;10291602;28;20073;-67
2023/05/17 05:07:29;;;;;;;10.55;6.68;;;;;;;;;;10290701;28;20353;-67
2023/05/17 05:12:29;;;;;;;13.55;8.13;;;;;;;;;;10290329;28;20081;-66
2023/05/17 05:17:30;;;;;;;11.45;6.93;;;;;;;;;;10293598;28;20473;-68
2023/05/17 05:22:31;;;;;;;9.48;7.13;;;;;;;;;;10307937;28;20099;-67
2023/05/17 05:27:29;;;;;;;9.57;7.03;;;;;;;;;;10301096;28;20467;-69
2023/05/17 05:32:27;;;;;;;11.68;7.50;;;;;;;;;;10300541;28;20071;-68
2023/05/17 05:37:26;;;;;;;13.02;6.95;;;;;;;;;;10302064;28;20477;-68
2023/05/17 05:42:26;;;;;;;12.00;6.50;;;;;;;;;;10301808;28;20099;-68
2023/05/17 05:47:24;;;;;;;14.68;6.40;;;;;;;;;;10301826;28;20079;-69
2023/05/17 05:52:23;;;;;;;9.60;6.72;;;;;;;;;;10319691;28;20072;-67
2023/05/17 05:57:21;;;;;;;9.60;6.78;;;;;;;;;;10309672;28;20075;-67
2023/05/17 06:02:21;;;;;;;12.75;7.07;;;;;;;;;;10313475;28;20072;-69
2023/05/17 06:07:19;;;;;;;9.85;6.68;;;;;;;;;;10297644;28;20060;-69
2023/05/17 06:12:19;;;;;;;12.65;6.25;;;;;;;;;;10298660;28;20068;-69
2023/05/17 06:17:17;;;;;;;11.00;6.25;;;;;;;;;;10293302;28;20068;-69
2023/05/17 06:22:17;;;;;;;12.18;6.82;;;;;;;;;;10289666;28;20095;-69
2023/05/17 06:27:15;;;;;;;10.52;5.90;;;;;;;;;;10287985;28;20127;-70
2023/05/17 06:32:14;;;;;;;11.13;8.00;;;;;;;;;;10290874;28;20048;-72
2023/05/17 06:37:13;;;;;;;9.38;5.65;;;;;;;;;;10288616;28;20060;-72
2023/05/17 06:42:12;;;;;;;11.98;7.40;;;;;;;;;;10299216;28;20533;-72
2023/05/17 06:47:11;;;;;;;9.32;6.25;;;;;;;;;;10297709;28;20080;-72
2023/05/17 06:52:09;;;;;;;8.85;5.25;;;;;;;;;;10299353;28;20062;-70
2023/05/17 06:57:08;;;;;;;10.15;6.20;;;;;;;;;;10297787;28;20079;-70
2023/05/17 07:02:08;;;;;;;12.30;9.02;;;;;;;;;;10297379;28;20450;-70
2023/05/17 07:07:06;;;;;;;16.92;14.77;;;;;;;;;;10299350;28;20084;-70
2023/05/17 07:12:05;;;;;;;10.77;6.68;;;;;;;;;;10297064;28;20071;-70
2023/05/17 07:17:04;;;;;;;12.05;8.48;;;;;;;;;;10297370;28;20072;-70
2023/05/17 07:22:03;;;;;;;9.43;7.75;;;;;;;;;;10296567;28;20091;-70
2023/05/17 07:27:01;;;;;;;10.95;7.05;;;;;;;;;;10290434;28;20079;-70
2023/05/17 07:32:00;;;;;;;14.35;6.93;;;;;;;;;;10289637;28;20076;-70
2023/05/17 07:37:03;;;;;;;11.88;7.25;;;;;;;;;;10292186;28;20072;-70
2023/05/17 07:42:01;;;;;;;9.98;7.13;;;;;;;;;;10296281;28;20075;-70
2023/05/17 07:47:02;;;;;;;8.52;6.72;;;;;;;;;;10296057;28;20068;-71
2023/05/17 07:52:01;;;;;;;14.02;5.80;;;;;;;;;;10296804;28;20087;-71
2023/05/17 07:57:01;;;;;;;10.25;6.75;;;;;;;;;;10297137;28;20065;-71
2023/05/17 08:01:59;;;;;;;11.52;6.85;;;;;;;;;;10295652;28;20076;-71
2023/05/17 08:06:59;;;;;;;8.35;5.93;;;;;;;;;;10294024;28;20072;-70
2023/05/17 08:11:58;;;;;;;14.30;6.18;;;;;;;;;;10295966;28;20073;-70
2023/05/17 08:16:57;;;;;;;10.82;6.38;;;;;;;;;;10295516;28;20079;-70
2023/05/17 08:21:55;;;;;;;13.98;6.93;;;;;;;;;;10296597;28;20092;-70
2023/05/17 08:26:54;;;;;;;10.07;7.38;;;;;;;;;;10294944;28;20064;-70
2023/05/17 08:31:53;;;;;;;15.38;7.80;;;;;;;;;;10295536;28;20081;-70
2023/05/17 08:36:53;;;;;;;8.90;6.53;;;;;;;;;;10297187;28;20091;-70
2023/05/17 08:41:52;;;;;;;9.98;6.30;;;;;;;;;;10290420;28;20462;-70
2023/05/17 08:46:52;;;;;;;8.43;5.43;;;;;;;;;;10299139;28;20064;-70
2023/05/17 08:51:53;;;;;;;18.55;9.95;;;;;;;;;;10303069;28;20095;-70
2023/05/17 08:56:53;;;;;;;13.93;9.55;;;;;;;;;;10302612;28;20068;-70
2023/05/17 09:01:53;;;;;;;10.93;6.63;;;;;;;;;;10303587;28;20087;-70
2023/05/17 09:06:51;;;;;;;10.30;6.50;;;;;;;;;;10303146;28;20075;-70
2023/05/17 09:11:49;;;;;;;14.07;7.32;;;;;;;;;;10300405;28;20474;-70
2023/05/17 09:16:56;;;;;;;11.77;7.68;;;;;;;;;;10302008;28;20068;-70
2023/05/17 09:21:54;;;;;;;9.30;6.82;;;;;;;;;;10302020;28;20080;-70
2023/05/17 09:26:52;;;;;;;9.75;6.63;;;;;;;;;;10301019;28;20071;-70
2023/05/17 09:31:52;;;;;;;16.92;8.95;;;;;;;;;;10301265;28;20102;-72
2023/05/17 09:36:51;;;;;;;7.25;6.55;;;;;;;;;;10302898;28;20080;-70
2023/05/17 09:41:50;;;;;;;8.98;4.80;;;;;;;;;;10301994;28;20073;-70
2023/05/17 09:46:48;;;;;;;8.45;5.10;;;;;;;;;;10296265;28;20068;-70
2023/05/17 09:51:48;;;;;;;14.07;6.68;;;;;;;;;;10301516;28;20056;-70
2023/05/17 09:56:53;;;;;;;8.93;5.15;;;;;;;;;;10299084;28;20072;-69
2023/05/17 10:01:51;;;;;;;12.93;6.13;;;;;;;;;;10297263;28;20063;-69
2023/05/17 10:06:51;;;;;;;11.35;5.10;;;;;;;;;;10300818;28;20076;-69
2023/05/17 10:11:52;;;;;;;10.25;5.45;;;;;;;;;;10301351;28;20072;-69
2023/05/17 10:16:51;;;;;;;7.90;5.90;;;;;;;;;;10298405;28;20045;-69
2023/05/17 10:21:51;;;;;;;9.75;6.07;;;;;;;;;;10301490;28;20524;-69
2023/05/17 10:26:50;;;;;;;6.13;5.43;;;;;;;;;;10298830;28;20079;-69
2023/05/17 10:31:49;;;;;;;10.23;6.75;;;;;;;;;;10299098;28;20068;-71
2023/05/17 10:36:48;;;;;;;8.40;5.60;;;;;;;;;;10299848;28;20465;-69
2023/05/17 10:41:50;;;;;;;8.25;5.18;;;;;;;;;;10299735;28;20091;-69
2023/05/17 10:46:54;;;;;;;9.45;5.60;;;;;;;;;;10293719;28;20068;-69
2023/05/17 10:51:52;;;;;;;8.90;5.55;;;;;;;;;;10298413;28;20068;-69
2023/05/17 10:56:52;;;;;;;9.85;4.30;;;;;;;;;;10298145;28;20064;-68
2023/05/17 11:01:52;;;;;;;6.63;4.00;;;;;;;;;;10298636;28;20491;-69
2023/05/17 11:06:51;;;;;;;6.25;4.03;;;;;;;;;;10296592;28;20111;-69
2023/05/17 11:12:04;;;;;;;9.68;5.35;;;;;;;;;;10297658;28;20064;-68
2023/05/17 11:17:12;;;;;;;5.30;3.42;;;;;;;;;;10295506;28;20084;-69
2023/05/17 11:22:11;;;;;;;6.05;4.07;;;;;;;;;;10295878;28;20088;-69
2023/05/17 11:27:09;;;;;;;5.82;3.40;;;;;;;;;;10297718;28;20088;-68
2023/05/17 11:32:10;;;;;;;9.38;5.25;;;;;;;;;;10293375;28;20060;-68
2023/05/17 11:37:10;;;;;;;5.20;3.42;;;;;;;;;;10296522;28;20501;-69
2023/05/17 11:42:23;;;;;;;4.90;3.67;;;;;;;;;;10296556;28;20064;-68
2023/05/17 11:47:23;;;;;;;7.70;4.03;;;;;;;;;;10297972;28;20077;-68
2023/05/17 11:52:22;;;;;;;3.53;2.60;;;;;;;;;;10296916;28;20064;-69
2023/05/17 11:57:21;;;;;;;3.78;2.55;;;;;;;;;;10296531;28;20068;-69
2023/05/17 12:02:27;;;;;;;4.40;2.40;;;;;;;;;;10295581;28;20075;-68
2023/05/17 12:07:25;;;;;;;2.72;1.98;;;;;;;;;;10295424;28;20068;-69
2023/05/17 12:12:24;;;;;;;5.88;3.20;;;;;;;;;;10295554;28;20080;-69
2023/05/17 12:17:28;;;;;;;5.25;2.78;;;;;;;;;;10290066;28;20111;-69
2023/05/17 12:22:27;;;;;;;4.55;3.33;;;;;;;;;;10291385;28;20517;-69
2023/05/17 12:27:26;;;;;;;4.82;2.72;;;;;;;;;;10294822;28;20080;-69
2023/05/17 12:32:24;;;;;;;10.40;3.50;;;;;;;;;;10295885;28;20083;-69
2023/05/17 12:37:23;;;;;;;5.00;3.10;;;;;;;;;;10295142;28;20068;-69
2023/05/17 12:42:22;;;;;;;5.68;3.05;;;;;;;;;;10296672;28;20072;-69
2023/05/17 12:47:21;;;;;;;4.75;2.95;;;;;;;;;;10291693;28;20072;-69
2023/05/17 12:52:19;;;;;;;5.13;2.40;;;;;;;;;;10295272;28;20069;-68
2023/05/17 12:57:18;;;;;;;4.68;3.40;;;;;;;;;;10295305;28;20087;-69
2023/05/17 13:02:18;;;;;;;6.72;3.55;;;;;;;;;;10293468;28;20072;-69
2023/05/17 13:07:21;;;;;;;7.22;2.80;;;;;;;;;;10294052;28;20076;-69
2023/05/17 13:12:20;;;;;;;6.47;2.60;;;;;;;;;;10287692;28;20083;-69
2023/05/17 13:17:24;;;;;;;4.53;2.95;;;;;;;;;;10293678;28;20084;-69
2023/05/17 13:22:24;;;;;;;4.30;3.17;;;;;;;;;;10296446;28;20496;-69
2023/05/17 13:27:22;;;;;;;6.47;2.92;;;;;;;;;;10294554;28;20064;-69
2023/05/17 13:32:21;;;;;;;3.65;2.90;;;;;;;;;;10296833;28;20071;-69
2023/05/17 13:37:21;;;;;;;5.97;3.88;;;;;;;;;;10302073;28;20069;-69
2023/05/17 13:42:19;;;;;;;9.95;3.30;;;;;;;;;;10301067;28;20069;-69
2023/05/17 13:47:17;;;;;;;7.70;3.25;;;;;;;;;;10301189;28;20072;-69
2023/05/17 13:52:17;;;;;;;8.00;4.25;;;;;;;;;;10300947;28;20064;-69
2023/05/17 13:57:15;;;;;;;9.98;4.35;;;;;;;;;;10300598;28;20467;-70
2023/05/17 14:02:14;;;;;;;5.97;3.00;;;;;;;;;;10301057;28;20462;-70
2023/05/17 14:07:12;;;;;;;9.05;4.38;;;;;;;;;;10300392;28;20068;-69
2023/05/17 14:12:11;;;;;;;6.00;2.85;;;;;;;;;;10298992;28;20079;-71
2023/05/17 14:17:10;;;;;;;3.78;2.47;;;;;;;;;;10300646;28;20076;-70
2023/05/17 14:22:08;;;;;;;4.63;2.70;;;;;;;;;;10301325;28;20462;-70
2023/05/17 14:27:06;;;;;;;8.18;5.53;;;;;;;;;;10299059;28;20084;-70
2023/05/17 14:32:07;;;;;;;8.10;6.15;;;;;;;;;;10300096;28;20076;-70
2023/05/17 14:37:05;;;;;;;32.03;25.90;;;;;;;;;;10298303;28;20075;-73
2023/05/17 14:42:03;;;;;;;6.50;4.30;;;;;;;;;;10296689;28;20409;-70
2023/05/17 14:47:01;;;;;;;9.88;4.18;;;;;;;;;;10289832;28;20509;-70
2023/05/17 14:52:01;;;;;;;7.55;4.60;;;;;;;;;;10296830;28;20645;-71
2023/05/17 14:56:59;;;;;;;12.00;9.18;;;;;;;;;;10309265;28;20082;-71
2023/05/17 15:01:59;;;;;;;15.43;5.95;;;;;;;;;;10291074;28;20067;-71
2023/05/17 15:06:57;;;;;;;9.50;6.30;;;;;;;;;;10296556;28;20525;-71
2023/05/17 15:11:57;;;;;;;11.23;6.50;;;;;;;;;;10298669;28;20174;-71
2023/05/17 15:16:56;;;;;;;22.75;14.15;;;;;;;;;;10288038;28;20077;-71
2023/05/17 15:21:54;;;;;;;14.77;10.93;;;;;;;;;;10293027;28;20079;-71
2023/05/17 15:26:52;;;;;;;14.15;8.43;;;;;;;;;;10294308;28;20086;-71
2023/05/17 15:31:52;;;;;;;12.82;7.25;;;;;;;;;;10296327;28;20076;-69
2023/05/17 15:36:50;;;;;;;12.68;6.57;;;;;;;;;;10293130;28;20937;-69
2023/05/17 15:41:48;;;;;;;14.07;8.00;;;;;;;;;;10297608;28;20072;-69
2023/05/17 15:46:46;;;;;;;10.85;7.57;;;;;;;;;;10293595;28;20470;-69
2023/05/17 15:51:46;;;;;;;16.88;8.65;;;;;;;;;;10296888;28;20083;-70
2023/05/17 15:56:46;;;;;;;10.30;9.00;;;;;;;;;;10294452;28;20072;-69
2023/05/17 16:01:45;;;;;;;14.90;8.45;;;;;;;;;;10295882;28;20088;-70
2023/05/17 16:06:43;;;;;;;12.05;9.32;;;;;;;;;;10289648;28;20449;-70
2023/05/17 16:11:43;;;;;;;13.43;9.38;;;;;;;;;;10292110;28;20084;-70
2023/05/17 16:16:41;;;;;;;15.70;11.00;;;;;;;;;;10292220;28;20072;-70
2023/05/17 16:21:42;;;;;;;14.73;12.55;;;;;;;;;;10288507;28;20067;-70
2023/05/17 16:26:40;;;;;;;12.82;8.63;;;;;;;;;;10295201;28;20086;-69
2023/05/17 16:31:40;;;;;;;12.63;9.98;;;;;;;;;;10293154;28;20665;-69
2023/05/17 16:36:38;;;;;;;15.45;7.90;;;;;;;;;;10289154;28;20248;-68
2023/05/17 16:41:37;;;;;;;16.20;10.65;;;;;;;;;;10297756;28;20095;-70
2023/05/17 16:46:36;;;;;;;14.95;9.75;;;;;;;;;;10295807;28;20510;-70
2023/05/17 16:51:36;;;;;;;13.20;10.95;;;;;;;;;;10297985;28;20060;-69
2023/05/17 16:56:34;;;;;;;16.58;10.65;;;;;;;;;;10291589;28;20064;-70
2023/05/17 17:01:33;;;;;;;20.10;13.13;;;;;;;;;;10285503;28;20509;-69
2023/05/17 17:06:32;;;;;;;37.03;23.00;;;;;;;;;;10293027;28;20111;-70
2023/05/17 17:11:32;;;;;;;21.13;14.65;;;;;;;;;;10299688;28;20068;-68
2023/05/17 17:16:31;;;;;;;16.13;11.07;;;;;;;;;;10302607;28;20533;-69
2023/05/17 17:21:32;;;;;;;13.93;8.98;;;;;;;;;;10301210;28;20080;-70
2023/05/17 17:26:30;;;;;;;11.73;7.45;;;;;;;;;;10304888;28;20076;-71
2023/05/17 17:31:30;;;;;;;7.93;6.68;;;;;;;;;;10301255;28;20076;-71
2023/05/17 17:36:29;;;;;;;9.13;6.25;;;;;;;;;;10302270;28;20072;-69
2023/05/17 17:41:27;;;;;;;8.43;6.10;;;;;;;;;;10303790;28;20683;-70
2023/05/17 17:46:25;;;;;;;11.10;8.07;;;;;;;;;;10296738;28;20075;-71
2023/05/17 17:51:25;;;;;;;8.93;5.55;;;;;;;;;;10291873;28;20072;-71
2023/05/17 17:56:24;;;;;;;7.40;4.82;;;;;;;;;;10297562;28;20131;-67
2023/05/17 18:01:22;;;;;;;6.88;4.63;;;;;;;;;;10302950;28;20640;-71
2023/05/17 18:06:21;;;;;;;14.50;5.47;;;;;;;;;;10298421;28;20080;-70
2023/05/17 18:11:21;;;;;;;10.70;5.22;;;;;;;;;;10301739;28;20651;-71
2023/05/17 18:16:19;;;;;;;8.88;5.55;;;;;;;;;;10300448;28;20060;-71
2023/05/17 18:21:17;;;;;;;10.77;5.53;;;;;;;;;;10295970;28;20514;-71
2023/05/17 18:26:15;;;;;;;11.95;5.60;;;;;;;;;;10297238;28;20092;-71
2023/05/17 18:31:17;;;;;;;10.27;6.07;;;;;;;;;;10304899;28;20056;-71
2023/05/17 18:36:15;;;;;;;9.73;5.57;;;;;;;;;;10294420;28;20072;-71
2023/05/17 18:41:14;;;;;;;14.70;5.93;;;;;;;;;;10299321;28;20069;-71
2023/05/17 18:46:12;;;;;;;10.32;5.88;;;;;;;;;;10295221;28;20083;-72
2023/05/17 18:51:11;;;;;;;6.75;5.00;;;;;;;;;;10288467;28;20080;-72
2023/05/17 18:56:11;;;;;;;9.45;5.20;;;;;;;;;;10294061;28;20434;-71
2023/05/17 19:01:09;;;;;;;13.85;5.25;;;;;;;;;;10295278;28;20067;-71
2023/05/17 19:06:12;;;;;;;10.75;5.80;;;;;;;;;;10300943;28;20072;-72
2023/05/17 19:11:12;;;;;;;8.82;4.75;;;;;;;;;;10291341;28;20068;-71
2023/05/17 19:16:14;;;;;;;10.80;4.80;;;;;;;;;;10296930;28;20072;-72
2023/05/17 19:21:12;;;;;;;6.88;4.68;;;;;;;;;;10296016;28;20092;-72
2023/05/17 19:26:12;;;;;;;12.85;4.35;;;;;;;;;;10297984;28;20515;-72
2023/05/17 19:31:10;;;;;;;7.90;4.63;;;;;;;;;;10291194;28;20422;-73
2023/05/17 19:36:09;;;;;;;10.10;4.82;;;;;;;;;;10291832;28;20190;-72
2023/05/17 19:41:08;;;;;;;10.43;5.47;;;;;;;;;;10295279;28;20067;-72
2023/05/17 19:46:09;;;;;;;5.63;4.30;;;;;;;;;;10294088;28;20079;-71
2023/05/17 19:51:07;;;;;;;8.63;5.13;;;;;;;;;;10295018;28;20071;-72
2023/05/17 19:56:07;;;;;;;8.20;5.28;;;;;;;;;;10293914;28;20083;-72
2023/05/17 20:01:05;;;;;;;8.60;5.72;;;;;;;;;;10288257;28;20072;-72
2023/05/17 20:06:04;;;;;;;7.10;5.70;;;;;;;;;;10288106;28;20079;-73
2023/05/17 20:11:03;;;;;;;10.13;6.28;;;;;;;;;;10290015;28;20472;-73
2023/05/17 20:16:01;;;;;;;11.40;6.63;;;;;;;;;;10292438;28;20071;-73
2023/05/17 20:20:59;;;;;;;13.20;6.65;;;;;;;;;;10289385;28;20084;-72
2023/05/17 20:25:59;;;;;;;7.60;5.03;;;;;;;;;;10292653;28;20091;-72
2023/05/17 20:30:57;;;;;;;5.22;4.65;;;;;;;;;;10297164;28;20068;-72
2023/05/17 20:35:56;;;;;;;7.57;4.97;;;;;;;;;;10295035;28;20104;-71
2023/05/17 20:40:54;;;;;;;8.85;5.63;;;;;;;;;;10295823;28;20792;-72
2023/05/17 20:45:54;;;;;;;10.23;5.18;;;;;;;;;;10300749;28;20076;-72
2023/05/17 20:50:53;;;;;;;11.52;5.95;;;;;;;;;;10296650;28;20068;-72
2023/05/17 20:55:52;;;;;;;12.13;4.90;;;;;;;;;;10296154;28;20484;-73
2023/05/17 21:00:51;;;;;;;9.50;5.03;;;;;;;;;;10300303;28;20076;-73
2023/05/17 21:05:51;;;;;;;12.00;5.97;;;;;;;;;;10299361;28;20490;-73
2023/05/17 21:10:49;;;;;;;6.82;6.13;;;;;;;;;;10302527;28;20068;-73
2023/05/17 21:15:48;;;;;;;6.20;5.45;;;;;;;;;;10299651;28;20060;-73
2023/05/17 21:20:46;;;;;;;8.25;5.57;;;;;;;;;;10291464;28;20072;-73
2023/05/17 21:25:46;;;;;;;17.15;5.70;;;;;;;;;;10298573;28;20591;-73
2023/05/17 21:30:44;;;;;;;9.27;5.38;;;;;;;;;;10296872;28;20118;-72
2023/05/17 21:35:42;;;;;;;7.75;5.00;;;;;;;;;;10301363;28;20657;-72
2023/05/17 21:40:40;;;;;;;9.55;5.30;;;;;;;;;;10303392;28;20064;-71
2023/05/17 21:45:40;;;;;;;11.27;6.13;;;;;;;;;;10300612;28;20437;-72
2023/05/17 21:50:38;;;;;;;7.50;6.43;;;;;;;;;;10301007;28;20067;-72
2023/05/17 21:55:38;;;;;;;8.13;6.03;;;;;;;;;;10299900;28;20068;-72
2023/05/17 22:00:58;;;;;;;8.98;5.97;;;;;;;;;;10300101;28;20072;-72
2023/05/17 22:05:56;;;;;;;10.93;7.10;;;;;;;;;;10295416;28;20072;-72
2023/05/17 22:10:54;;;;;;;8.35;6.45;;;;;;;;;;10300020;28;20067;-72
2023/05/17 22:15:55;;;;;;;9.07;7.18;;;;;;;;;;10299576;28;20891;-72
2023/05/17 22:20:57;;;;;;;8.70;7.13;;;;;;;;;;10300422;28;20083;-72
2023/05/17 22:25:59;;;;;;;12.10;8.13;;;;;;;;;;10298657;28;20046;-72
2023/05/17 22:30:57;;;;;;;14.32;7.57;;;;;;;;;;10294847;28;20076;-72
2023/05/17 22:35:57;;;;;;;10.02;7.95;;;;;;;;;;10295472;28;20072;-72
2023/05/17 22:40:55;;;;;;;9.25;8.32;;;;;;;;;;10297407;28;20076;-72
2023/05/17 22:45:58;;;;;;;8.20;7.10;;;;;;;;;;10296565;28;20076;-72
2023/05/17 22:50:59;;;;;;;9.57;7.78;;;;;;;;;;10296672;28;20079;-73
2023/05/17 22:55:57;;;;;;;11.98;7.85;;;;;;;;;;10296551;28;20068;-72
2023/05/17 23:00:56;;;;;;;11.20;7.55;;;;;;;;;;10293542;28;20082;-72
2023/05/17 23:06:01;;;;;;;11.65;9.23;;;;;;;;;;10291660;28;20080;-72
2023/05/17 23:11:03;;;;;;;14.60;8.77;;;;;;;;;;10278571;28;20187;-73
2023/05/17 23:16:01;;;;;;;12.65;9.82;;;;;;;;;;10295232;28;20103;-72
2023/05/17 23:21:00;;;;;;;12.60;9.32;;;;;;;;;;10301929;28;20095;-72
2023/05/17 23:25:58;;;;;;;14.95;9.52;;;;;;;;;;10295369;28;20071;-73
2023/05/17 23:31:00;;;;;;;13.20;9.80;;;;;;;;;;10295154;28;20080;-73
2023/05/17 23:35:58;;;;;;;11.15;9.75;;;;;;;;;;10279246;28;20458;-73
2023/05/17 23:40:59;;;;;;;11.65;10.20;;;;;;;;;;10279028;28;20068;-72
2023/05/17 23:46:00;;;;;;;13.48;10.00;;;;;;;;;;10295491;28;20103;-73
2023/05/17 23:50:58;;;;;;;10.05;9.00;;;;;;;;;;10278546;28;20521;-73
2023/05/17 23:55:56;;;;;;;10.70;9.60;;;;;;;;;;10278612;28;20071;-73
